createdAt,value
2019-05-22T00:02:45.001Z,99856.48
2019-05-22T00:08:12.463Z,99857.87
2019-05-22T00:13:39.050Z,99862.55
2019-05-22T00:19:05.982Z,99858.54
2019-05-22T00:24:30.532Z,99856.73
2019-05-22T00:29:57.809Z,99856.73
2019-05-22T00:35:23.551Z,99851.00
2019-05-22T00:40:55.231Z,99862.14
2019-05-22T00:46:21.024Z,99875.55
2019-05-22T00:52:05.341Z,99863.16
2019-05-22T00:57:42.436Z,99865.09
2019-05-22T01:03:10.140Z,99873.20
2019-05-22T01:08:37.613Z,99876.90
2019-05-22T01:14:01.929Z,99879.59
2019-05-22T01:19:28.545Z,99880.19
2019-05-22T01:24:53.613Z,99890.88
2019-05-22T01:30:38.614Z,99899.59
2019-05-22T01:36:02.493Z,99885.72
2019-05-22T01:41:41.524Z,99881.52
2019-05-22T01:47:09.347Z,99881.52
2019-05-22T01:52:36.294Z,99901.41
2019-05-22T01:58:00.698Z,99902.09
2019-05-22T02:03:27.886Z,99908.38
2019-05-22T02:08:56.382Z,99904.91
2019-05-22T02:14:28.257Z,99913.12
2019-05-22T02:19:51.988Z,99917.16
2019-05-22T02:25:18.682Z,99916.91
2019-05-22T02:30:44.396Z,99927.81
2019-05-22T02:36:10.680Z,99937.55
2019-05-22T02:41:42.430Z,99931.27
2019-05-22T02:47:19.153Z,99934.96
2019-05-22T02:52:36.999Z,99925.25
2019-05-22T02:58:00.357Z,99926.13
2019-05-22T03:03:27.170Z,99942.15
2019-05-22T03:09:22.835Z,99943.83
2019-05-22T03:14:49.965Z,99947.66
2019-05-22T03:20:23.664Z,99942.38
2019-05-22T03:25:49.248Z,99937.83
2019-05-22T03:31:14.036Z,99933.27
2019-05-22T03:36:42.042Z,99951.91
2019-05-22T03:42:06.751Z,99953.13
2019-05-22T03:47:32.591Z,99960.30
2019-05-22T03:52:57.095Z,99964.69
2019-05-22T03:58:23.560Z,99969.75
2019-05-22T04:03:48.663Z,99980.94
2019-05-22T04:09:28.288Z,99983.95
2019-05-22T04:14:55.162Z,99972.59
2019-05-22T04:20:25.159Z,99970.83
2019-05-22T04:25:53.467Z,99977.20
2019-05-22T04:31:20.050Z,99989.62
2019-05-22T04:36:45.881Z,99987.66
2019-05-22T04:42:12.355Z,99993.79
2019-05-22T04:47:37.875Z,99985.25
2019-05-22T04:53:02.288Z,99978.96
2019-05-22T04:58:29.572Z,99978.96
2019-05-22T05:03:53.935Z,99990.62
2019-05-22T05:09:20.121Z,100000.23
2019-05-22T05:14:43.677Z,100012.03
2019-05-22T05:20:21.993Z,100005.00
2019-05-22T05:25:36.267Z,100002.75
2019-05-22T05:31:02.675Z,99996.06
2019-05-22T05:36:28.447Z,100002.89
2019-05-22T05:41:54.556Z,100014.56
2019-05-22T05:47:20.201Z,100023.14
2019-05-22T05:52:47.521Z,100027.36
2019-05-22T05:58:34.997Z,100024.88
2019-05-22T06:04:02.387Z,100027.53
2019-05-22T06:09:30.264Z,100033.22
2019-05-22T06:14:55.238Z,100031.85
2019-05-22T06:20:23.218Z,100030.77
2019-05-22T06:25:46.991Z,100028.37
2019-05-22T06:31:14.210Z,100026.23
2019-05-22T06:36:37.849Z,100025.50
2019-05-22T06:42:02.727Z,100027.80
2019-05-22T06:47:28.047Z,100030.37
2019-05-22T06:53:08.985Z,100038.69
2019-05-22T06:58:19.957Z,100034.66
2019-05-22T07:03:44.870Z,100028.09
2019-05-22T07:09:10.570Z,100034.09
2019-05-22T07:14:37.159Z,100034.78
2019-05-22T07:20:03.061Z,100055.47
2019-05-22T07:25:28.284Z,100045.38
2019-05-22T07:30:52.754Z,100035.95
2019-05-22T07:36:17.983Z,100036.41
2019-05-22T07:41:42.419Z,100033.95
2019-05-22T07:47:10.035Z,100035.80
2019-05-22T07:52:34.314Z,100034.12
2019-05-22T07:58:08.861Z,100041.77
2019-05-22T08:03:34.418Z,100041.08
2019-05-22T08:09:00.596Z,100037.30
2019-05-22T08:14:26.680Z,100037.66
2019-05-22T08:19:50.089Z,100037.66
2019-05-22T08:25:15.507Z,100038.48
2019-05-22T08:30:39.413Z,100059.00
2019-05-22T08:36:05.351Z,100061.31
2019-05-22T08:41:31.915Z,100059.88
2019-05-22T08:46:56.826Z,100067.52
2019-05-22T08:52:23.813Z,100075.14
2019-05-22T08:57:46.509Z,100058.67
2019-05-22T09:03:12.404Z,100071.80
2019-05-22T09:08:38.303Z,100077.94
2019-05-22T09:14:00.973Z,100080.23
2019-05-22T09:19:26.822Z,100072.09
2019-05-22T09:24:51.806Z,100072.09
2019-05-22T09:30:19.332Z,100071.37
2019-05-22T09:35:43.545Z,100070.69
2019-05-22T09:41:10.591Z,100078.11
2019-05-22T09:46:34.244Z,100082.18
2019-05-22T09:51:59.715Z,100092.35
2019-05-22T09:57:23.827Z,100089.02
2019-05-22T10:02:50.069Z,100091.73
2019-05-22T10:08:15.941Z,100102.80
2019-05-22T10:13:39.291Z,100092.31
2019-05-22T10:19:05.441Z,100093.14
2019-05-22T10:24:29.789Z,100091.31
2019-05-22T10:29:56.696Z,100097.84
2019-05-22T10:35:22.424Z,100089.27
2019-05-22T10:40:47.919Z,100103.28
2019-05-22T10:46:12.061Z,100111.33
2019-05-22T10:56:54.076Z,100111.16
2019-05-22T11:02:20.091Z,100113.72
2019-05-22T11:07:43.887Z,100107.35
2019-05-22T11:13:10.523Z,100098.69
2019-05-22T11:18:35.271Z,100124.33
2019-05-22T11:23:59.659Z,100124.97
2019-05-22T11:29:23.988Z,100131.84
2019-05-22T11:34:49.553Z,100119.20
2019-05-22T11:40:13.732Z,100114.48
2019-05-22T11:45:38.671Z,100116.83
2019-05-22T11:51:03.142Z,100112.63
2019-05-22T11:56:29.018Z,100106.17
2019-05-22T12:01:54.691Z,100115.48
2019-05-22T12:07:19.126Z,100117.36
2019-05-22T12:12:45.340Z,100127.44
2019-05-22T12:18:11.089Z,100127.75
2019-05-22T12:23:36.958Z,100116.94
2019-05-22T12:29:01.209Z,100123.78
2019-05-22T12:34:27.625Z,100122.17
2019-05-22T12:39:52.022Z,100135.75
2019-05-22T12:45:19.738Z,100128.03
2019-05-22T12:50:44.478Z,100118.98
2019-05-22T12:56:10.064Z,100110.88
2019-05-22T13:01:37.925Z,100119.98
2019-05-22T13:07:03.554Z,100115.28
2019-05-22T13:12:28.815Z,100114.53
2019-05-22T13:17:55.072Z,100119.69
2019-05-22T13:23:20.036Z,100118.27
2019-05-22T13:28:46.452Z,100116.32
2019-05-22T13:34:11.716Z,100113.12
2019-05-22T13:39:37.211Z,100110.98
2019-05-22T13:45:02.130Z,100123.55
2019-05-22T13:50:28.964Z,100113.84
2019-05-22T13:55:54.351Z,100111.33
2019-05-22T14:01:20.891Z,100110.88
2019-05-22T14:06:45.954Z,100111.28
2019-05-22T14:12:10.315Z,100106.02
2019-05-22T14:17:34.818Z,100103.00
2019-05-22T14:22:58.442Z,100109.03
2019-05-22T14:28:25.608Z,100104.08
2019-05-22T14:33:47.634Z,100109.36
2019-05-22T14:39:13.706Z,100107.92
2019-05-22T14:44:35.462Z,100101.22
2019-05-22T14:49:59.639Z,100104.44
2019-05-22T14:55:22.194Z,100110.94
2019-05-22T15:00:46.053Z,100102.19
2019-05-22T15:06:08.606Z,100108.80
2019-05-22T15:11:33.152Z,100111.99
2019-05-22T15:16:54.837Z,100110.00
2019-05-22T15:22:17.974Z,100105.55
2019-05-22T15:27:39.693Z,100105.78
2019-05-22T15:33:03.017Z,100100.67
2019-05-22T15:38:27.885Z,100103.27
2019-05-22T15:43:53.053Z,100094.98
2019-05-22T15:49:17.923Z,100098.52
2019-05-22T15:54:41.672Z,100104.44
2019-05-22T16:00:05.874Z,100101.87
2019-05-22T16:05:29.981Z,100102.01
2019-05-22T16:10:59.500Z,100108.52
2019-05-22T16:16:22.436Z,100101.41
2019-05-22T16:21:50.562Z,100108.31
2019-05-22T16:27:14.593Z,100107.12
2019-05-22T16:32:40.350Z,100113.52
2019-05-22T16:38:02.987Z,100117.06
2019-05-22T16:43:47.465Z,100113.90
2019-05-22T16:48:52.622Z,100114.42
2019-05-22T16:54:20.931Z,100111.87
2019-05-22T16:59:44.017Z,100116.27
2019-05-22T17:05:09.641Z,100126.36
2019-05-22T17:10:32.069Z,100134.11
2019-05-22T17:15:56.535Z,100125.25
2019-05-22T17:21:20.507Z,100129.22
2019-05-22T17:26:46.592Z,100130.15
2019-05-22T17:32:10.134Z,100137.13
2019-05-22T17:37:35.077Z,100144.23
2019-05-22T17:42:59.438Z,100148.86
2019-05-22T17:48:25.162Z,100155.45
2019-05-22T17:53:48.893Z,100162.78
2019-05-22T17:59:12.074Z,100172.54
2019-05-22T18:04:37.560Z,100171.33
2019-05-22T18:10:02.623Z,100177.28
2019-05-22T18:15:28.670Z,100189.61
2019-05-22T18:20:52.736Z,100202.18
2019-05-22T18:26:18.413Z,100221.59
2019-05-22T18:31:40.546Z,100235.34
2019-05-22T18:37:03.888Z,100234.16
2019-05-22T18:42:28.374Z,100258.42
2019-05-22T18:47:54.002Z,100268.71
2019-05-22T18:53:16.964Z,100281.09
2019-05-22T18:58:43.816Z,100282.91
2019-05-22T19:04:07.770Z,100315.34
2019-05-22T19:09:34.399Z,100322.84
2019-05-22T19:14:57.383Z,100330.30
2019-05-22T19:20:22.844Z,100332.54
2019-05-22T19:25:47.190Z,100350.13
2019-05-22T19:31:12.886Z,100379.10
2019-05-22T19:36:36.983Z,100375.19
2019-05-22T19:42:05.482Z,100378.78
2019-05-22T19:47:26.808Z,100378.83
2019-05-22T19:52:53.924Z,100386.69
2019-05-22T19:58:21.971Z,100390.77
2019-05-22T20:03:45.538Z,100385.58
2019-05-22T20:09:13.722Z,100377.94
2019-05-22T20:14:37.684Z,100377.41
2019-05-22T20:20:04.382Z,100383.23
2019-05-22T20:25:29.707Z,100391.53
2019-05-22T20:30:54.799Z,100397.28
2019-05-22T20:36:18.939Z,100403.76
2019-05-22T20:41:44.798Z,100374.81
2019-05-22T20:47:09.227Z,100374.81
2019-05-22T20:52:35.840Z,100396.84
2019-05-22T20:58:00.470Z,100401.16
2019-05-22T21:03:26.742Z,100401.16
2019-05-22T21:08:51.178Z,100429.25
2019-05-22T21:14:17.011Z,100429.22
2019-05-22T21:19:42.669Z,100441.63
2019-05-22T21:25:08.960Z,100442.83
2019-05-22T21:30:34.604Z,100438.20
2019-05-22T21:36:01.210Z,100445.65
2019-05-22T21:41:26.796Z,100438.28
2019-05-22T21:46:52.979Z,100465.91
2019-05-22T21:52:18.607Z,100470.11
2019-05-22T21:57:42.783Z,100445.82
2019-05-22T22:03:10.607Z,100457.05
2019-05-22T22:08:34.607Z,100464.19
2019-05-22T22:14:01.838Z,100466.29
2019-05-22T22:19:27.824Z,100466.29
2019-05-22T22:24:53.442Z,100470.73
2019-05-22T22:30:23.974Z,100472.61
2019-05-22T22:35:50.021Z,100461.39
2019-05-22T22:41:15.736Z,100466.74
2019-05-22T22:46:51.052Z,100466.74
2019-05-22T22:52:16.449Z,100477.84
2019-05-22T22:57:42.331Z,100482.18
2019-05-22T23:03:08.135Z,100476.51
2019-05-22T23:08:41.132Z,100476.51
2019-05-22T23:14:06.149Z,100491.12
2019-05-22T23:19:41.882Z,100490.66
2019-05-22T23:25:07.173Z,100510.27
2019-05-22T23:30:34.375Z,100498.83
2019-05-22T23:35:59.680Z,100508.54
2019-05-22T23:41:26.549Z,100516.23
2019-05-22T23:46:51.825Z,100511.89
2019-05-22T23:52:17.925Z,100515.37
2019-05-22T23:57:44.103Z,100508.82
